.
WxDataArchive / Data Records for 2007-04-21
2007-04-20 April 2007 2007-04-22

Data Records for Saturday, 21 April 2007

Time	Temp	Chill	HIndex	Humid	Dewpt	 Wind 	HiWind	WindDir	Rain 	Barom 
-----	----	-----	------	-----	-----	------	------	-------	-----	----- 
00:00	43.6	43.6	43.6	61	31.0	0	0	---	0.00	30.191 
00:05	43.5	43.5	43.5	62	31.4	0	0	---	0.00	30.191 
00:10	43.3	43.3	43.3	61	30.8	0	0	---	0.00	30.192 
00:15	43.2	43.2	43.2	61	30.7	0	0	---	0.00	30.193 
00:20	43.1	43.1	43.1	59	29.8	0	0	---	0.00	30.193 
00:25	42.9	42.9	42.9	61	30.4	0	0	---	0.00	30.194 
00:30	43.1	43.1	43.1	62	31.0	0	0	---	0.00	30.194 
00:35	42.9	42.9	42.9	62	30.8	0	0	---	0.00	30.193 
00:40	42.8	42.8	42.8	61	30.3	0	0	---	0.00	30.193 
00:45	42.6	42.6	42.6	61	30.1	0	0	---	0.00	30.193 
00:50	42.5	42.5	42.5	61	30.0	0	0	---	0.00	30.192 
00:55	42.3	42.3	42.3	61	29.8	0	0	---	0.00	30.194 
01:00	42.3	42.3	42.3	61	29.8	0	0	---	0.00	30.193 
01:05	42.2	42.2	42.2	62	30.1	0	0	---	0.00	30.190 
01:10	42.1	42.1	42.1	62	30.0	0	0	---	0.00	30.190 
01:15	41.9	41.9	41.9	63	30.2	0	0	---	0.00	30.189 
01:20	41.8	41.8	41.8	64	30.5	0	0	---	0.00	30.188 
01:25	41.6	41.6	41.6	65	30.7	0	0	---	0.00	30.187 
01:30	41.5	41.5	41.5	66	31.0	0	0	---	0.00	30.187 
01:35	41.3	41.3	41.3	67	31.2	0	0	---	0.00	30.185 
01:40	41.2	41.2	41.2	67	31.1	0	0	---	0.00	30.187 
01:45	41.1	41.1	41.1	68	31.4	0	0	---	0.00	30.186 
01:50	40.9	40.9	40.9	68	31.2	0	0	---	0.00	30.183 
01:55	40.8	40.8	40.8	68	31.1	0	0	---	0.00	30.183 
02:00	40.6	40.6	40.6	68	30.9	0	0	---	0.00	30.182 
02:05	40.5	40.5	40.5	68	30.8	0	0	---	0.00	30.181 
02:10	40.5	40.5	40.5	68	30.8	0	0	---	0.00	30.182 
02:15	40.5	40.5	40.5	69	31.1	0	0	---	0.00	30.182 
02:20	40.5	40.5	40.5	70	31.5	0	0	---	0.00	30.181 
02:25	40.5	40.5	40.5	70	31.5	0	0	---	0.00	30.183 
02:30	40.3	40.3	40.3	69	31.0	0	0	---	0.00	30.182 
02:35	40.1	40.1	40.1	69	30.8	0	0	---	0.00	30.182 
02:40	39.9	39.9	39.9	70	30.9	0	0	---	0.00	30.182 
02:45	39.6	39.6	39.6	70	30.6	0	0	---	0.00	30.181 
02:50	39.5	39.5	39.5	70	30.5	0	0	---	0.00	30.181 
02:55	39.2	39.2	39.2	70	30.3	0	0	---	0.00	30.182 
03:00	39.1	39.1	39.1	70	30.2	0	0	---	0.00	30.184 
03:05	38.9	38.9	38.9	71	30.3	0	0	---	0.00	30.183 
03:10	38.9	38.9	38.9	71	30.3	0	0	---	0.00	30.183 
03:15	38.8	38.8	38.8	71	30.2	0	0	---	0.00	30.184 
03:20	38.6	38.6	38.6	72	30.4	0	0	---	0.00	30.184 
03:25	38.5	38.5	38.5	72	30.3	0	0	---	0.00	30.185 
03:30	38.2	38.2	38.2	72	30.0	0	0	---	0.00	30.186 
03:35	38.0	38.0	38.0	74	30.5	0	0	---	0.00	30.188 
03:40	37.8	37.8	37.8	75	30.6	0	0	---	0.00	30.191 
03:45	37.8	37.8	37.8	75	30.6	0	0	---	0.00	30.193 
03:50	37.8	37.8	37.8	76	30.9	0	0	---	0.00	30.192 
03:55	37.6	37.6	37.6	77	31.1	0	0	---	0.00	30.191 
04:00	37.6	37.6	37.6	78	31.4	0	0	---	0.00	30.192 
04:05	37.6	37.6	37.6	79	31.7	0	0	---	0.00	30.191 
04:10	37.5	37.5	37.5	80	31.9	0	0	---	0.00	30.190 
04:15	37.5	37.5	37.5	80	31.9	0	0	---	0.00	30.191 
04:20	37.5	37.5	37.5	81	32.2	0	0	---	0.00	30.192 
04:25	37.5	37.5	37.5	81	32.2	0	0	---	0.00	30.193 
04:30	37.3	37.3	37.3	81	32.0	0	0	---	0.00	30.194 
04:35	37.3	37.3	37.3	81	32.0	0	0	---	0.00	30.197 
04:40	37.3	37.3	37.3	82	32.3	0	0	---	0.00	30.197 
04:45	37.3	37.3	37.3	82	32.3	0	0	---	0.00	30.197 
04:50	37.2	37.2	37.2	82	32.2	0	0	---	0.00	30.198 
04:55	37.0	37.0	37.0	82	32.0	0	0	---	0.00	30.199 
05:00	36.9	36.9	36.9	82	31.9	0	0	---	0.00	30.200 
05:05	36.9	36.9	36.9	82	31.9	0	0	---	0.00	30.200 
05:10	36.8	36.8	36.8	82	31.8	0	0	---	0.00	30.203 
05:15	36.5	36.5	36.5	82	31.5	0	0	---	0.00	30.203 
05:20	36.3	36.3	36.3	83	31.6	0	0	---	0.00	30.205 
05:25	36.2	36.2	36.2	84	31.8	0	0	---	0.00	30.208 
05:30	35.9	35.9	35.9	84	31.5	0	0	---	0.00	30.211 
05:35	35.9	35.9	35.9	84	31.5	0	0	---	0.00	30.215 
05:40	35.9	35.9	35.9	84	31.5	0	0	---	0.00	30.217 
05:45	35.9	35.9	35.9	84	31.5	0	0	---	0.00	30.218 
05:50	35.8	35.8	35.8	84	31.4	0	0	---	0.00	30.220 
05:55	35.8	35.8	35.8	84	31.4	0	0	---	0.00	30.222 
06:00	35.6	35.6	35.6	85	31.5	0	0	---	0.00	30.225 
06:05	35.6	35.6	35.6	85	31.5	0	0	---	0.00	30.230 
06:10	35.6	35.6	35.6	85	31.5	0	0	---	0.00	30.231 
06:15	35.6	35.6	35.6	85	31.5	0	0	---	0.00	30.233 
06:20	35.9	35.9	35.9	86	32.1	0	0	---	0.00	30.233 
06:25	36.0	36.0	36.0	85	31.9	0	0	---	0.00	30.233 
06:30	36.5	36.5	36.5	85	32.4	0	0	---	0.00	30.234 
06:35	36.8	36.8	36.8	84	32.4	0	0	---	0.00	30.232 
06:40	37.3	37.3	37.3	84	32.9	0	0	---	0.00	30.233 
06:45	38.3	38.3	38.3	83	33.6	0	1	90	0.00	30.235 
06:50	39.6	39.6	39.6	77	33.0	0	1	90	0.00	30.240 
06:55	40.8	40.8	40.8	76	33.8	0	0	---	0.00	30.240 
07:00	42.1	42.1	42.1	73	34.1	0	0	---	0.00	30.243 
07:05	43.1	43.1	43.1	72	34.7	0	0	---	0.00	30.249 
07:10	44.8	44.8	44.8	70	35.6	0	0	---	0.00	30.248 
07:15	46.1	46.1	46.1	66	35.4	0	0	---	0.00	30.247 
07:20	47.6	47.6	47.6	65	36.4	0	1	90	0.00	30.247 
07:25	49.2	49.2	49.2	56	34.2	0	0	---	0.00	30.247 
07:30	50.7	50.7	50.7	49	32.2	0	2	90	0.00	30.245 
07:35	51.9	51.9	51.9	47	32.3	0	2	90	0.00	30.244 
07:40	52.9	52.9	52.9	45	32.1	0	2	90	0.00	30.244 
07:45	53.8	53.8	53.8	47	34.0	1	2	90	0.00	30.243 
07:50	54.2	54.2	54.2	47	34.4	0	1	90	0.00	30.244 
07:55	55.0	55.0	55.0	43	32.9	0	2	90	0.00	30.244 
08:00	55.9	55.9	55.9	44	34.3	0	1	90	0.00	30.241 
08:05	56.6	56.6	56.6	41	33.2	0	2	90	0.00	30.247 
08:10	57.2	57.2	57.2	41	33.7	0	1	90	0.00	30.248 
08:15	58.0	58.0	58.0	37	31.9	0	2	90	0.00	30.248 
08:20	58.9	58.9	58.9	36	32.0	0	1	90	0.00	30.245 
08:25	59.6	59.6	59.6	37	33.3	0	2	90	0.00	30.245 
08:30	60.1	60.1	60.1	34	31.6	1	2	90	0.00	30.247 
08:35	60.2	60.2	60.2	33	31.0	1	2	90	0.00	30.248 
08:40	60.2	60.2	60.2	35	32.4	1	3	90	0.00	30.250 
08:45	60.4	60.4	60.4	35	32.6	1	2	90	0.00	30.252 
08:50	60.7	60.7	60.7	34	32.2	1	3	90	0.00	30.252 
08:55	61.0	61.0	61.0	38	35.2	1	3	90	0.00	30.252 
09:00	61.2	61.2	61.2	37	34.7	2	4	90	0.00	30.252 
09:05	61.2	61.2	61.2	36	34.0	1	4	112	0.00	30.256 
09:10	61.8	61.8	61.8	37	35.3	1	2	112	0.00	30.256 
09:15	62.3	62.3	62.3	31	31.3	1	3	112	0.00	30.257 
09:20	62.6	62.6	62.6	30	30.7	1	3	112	0.00	30.255 
09:25	63.1	63.1	63.1	30	31.2	1	4	112	0.00	30.256 
09:30	63.4	63.4	63.4	30	31.4	1	3	135	0.00	30.254 
09:35	63.7	63.7	63.7	28	30.0	1	3	90	0.00	30.253 
09:40	64.0	64.0	64.0	28	30.2	1	4	90	0.00	30.252 
09:45	64.8	64.8	64.8	26	29.1	1	3	112	0.00	30.251 
09:50	65.2	65.2	65.2	25	28.5	1	4	112	0.00	30.249 
09:55	65.5	65.5	65.5	26	29.7	2	4	112	0.00	30.247 
10:00	65.6	65.6	65.6	25	28.8	0	2	202	0.00	30.247 
10:05	65.5	65.5	65.5	26	29.7	1	3	225	0.00	30.248 
10:10	65.5	65.5	65.5	26	29.7	2	4	248	0.00	30.244 
10:15	66.0	66.0	66.0	21	24.9	1	2	90	0.00	30.242 
10:20	66.4	66.4	66.4	27	31.4	1	2	90	0.00	30.242 
10:25	67.1	67.1	67.1	23	28.1	1	4	68	0.00	30.243 
10:30	67.9	67.9	67.9	27	32.7	1	4	112	0.00	30.238 
10:35	68.3	68.3	68.3	23	29.1	2	5	135	0.00	30.238 
10:40	67.4	67.4	67.4	20	24.9	2	4	248	0.00	30.238 
10:45	67.3	67.3	67.3	23	28.2	1	4	90	0.00	30.236 
10:50	67.1	67.1	67.1	22	27.0	2	4	248	0.00	30.235 
10:55	67.1	67.1	67.1	25	30.1	2	6	270	0.00	30.235 
11:00	67.3	67.3	67.3	23	28.2	1	4	248	0.00	30.232 
11:05	67.4	67.4	67.4	20	24.9	1	3	270	0.00	30.230 
11:10	67.8	67.8	67.8	22	27.6	3	7	90	0.00	30.225 
11:15	67.9	67.9	67.9	22	27.7	2	7	112	0.00	30.225 
11:20	67.9	67.9	67.9	20	25.4	2	5	112	0.00	30.224 
11:25	68.4	68.4	68.4	23	29.2	1	3	112	0.00	30.223 
11:30	68.8	68.8	68.8	20	26.1	2	6	112	0.00	30.223 
11:35	68.9	68.9	68.9	21	27.4	2	5	112	0.00	30.222 
11:40	69.1	69.1	69.1	22	28.7	1	3	90	0.00	30.221 
11:45	69.6	69.6	69.6	22	29.1	1	6	112	0.00	30.217 
11:50	69.6	69.6	69.6	24	31.2	1	3	112	0.00	30.216 
11:55	69.4	69.4	69.4	24	31.0	1	4	338	0.00	30.215 
12:00	69.4	69.4	69.4	21	27.8	1	4	45	0.00	30.210 
12:05	69.6	69.6	69.6	25	32.2	2	5	112	0.00	30.210 
12:10	69.4	69.4	69.4	23	30.0	2	4	248	0.00	30.209 
12:15	69.9	69.9	69.9	24	31.5	1	3	90	0.00	30.206 
12:20	70.1	70.1	70.1	22	29.5	2	4	90	0.00	30.205 
12:25	70.1	70.1	70.1	24	31.6	2	4	90	0.00	30.203 
12:30	70.8	70.8	70.8	24	32.2	1	3	90	0.00	30.200 
12:35	70.9	70.9	70.9	27	35.2	1	6	22	0.00	30.200 
12:40	70.4	70.4	70.4	21	28.6	2	5	248	0.00	30.196 
12:45	70.8	70.8	70.8	21	28.9	1	5	292	0.00	30.196 
12:50	70.8	70.8	70.8	20	27.7	2	4	270	0.00	30.195 
12:55	70.9	70.9	70.9	26	34.3	1	3	270	0.00	30.192 
13:00	70.9	70.9	70.9	21	29.0	1	5	270	0.00	30.191 
13:05	71.5	71.5	71.5	21	29.5	2	7	112	0.00	30.192 
13:10	71.6	71.6	71.6	22	30.7	2	5	90	0.00	30.192 
13:15	71.5	71.5	71.5	22	30.7	2	5	112	0.00	30.190 
13:20	71.1	71.1	71.1	21	29.2	2	6	90	0.00	30.188 
13:25	71.5	71.5	71.5	21	29.5	1	3	202	0.00	30.181 
13:30	71.8	71.8	71.8	23	32.0	1	5	180	0.00	30.177 
13:35	71.8	71.8	71.8	21	29.8	2	4	90	0.00	30.177 
13:40	71.8	71.8	71.8	28	36.9	1	3	112	0.00	30.176 
13:45	72.0	72.0	72.0	25	34.2	2	4	90	0.00	30.175 
13:50	71.8	71.8	71.8	24	33.1	2	5	90	0.00	30.173 
13:55	71.8	71.8	71.8	21	29.8	2	6	90	0.00	30.171 
14:00	72.0	72.0	72.0	22	31.1	1	4	225	0.00	30.170 
14:05	72.3	72.3	72.3	22	31.3	1	6	135	0.00	30.170 
14:10	72.3	72.3	72.3	23	32.4	2	6	90	0.00	30.168 
14:15	73.0	73.0	73.0	23	33.0	2	5	248	0.00	30.164 
14:20	73.3	73.3	73.3	24	34.3	1	2	248	0.00	30.162 
14:25	73.5	73.5	73.5	27	37.5	1	4	112	0.00	30.161 
14:30	73.7	73.7	73.7	25	35.7	1	3	225	0.00	30.159 
14:35	73.3	73.3	73.3	22	32.2	2	4	112	0.00	30.159 
14:40	73.0	73.0	73.0	21	30.8	3	7	112	0.00	30.159 
14:45	72.7	72.7	72.7	20	29.3	2	4	90	0.00	30.158 
14:50	72.5	72.5	72.5	25	34.7	1	4	112	0.00	30.152 
14:55	72.7	72.7	72.7	25	34.8	1	7	135	0.00	30.152 
15:00	72.5	72.5	72.5	22	31.5	2	7	112	0.00	30.148 
15:05	72.7	72.7	72.7	22	31.7	2	5	90	0.00	30.147 
15:10	72.8	72.8	72.8	22	31.7	2	4	112	0.00	30.147 
15:15	73.0	73.0	73.0	21	30.8	1	3	270	0.00	30.145 
15:20	73.2	73.2	73.2	20	29.7	2	5	112	0.00	30.143 
15:25	73.2	73.2	73.2	25	35.3	1	3	112	0.00	30.141 
15:30	73.5	73.5	73.5	26	36.5	1	4	225	0.00	30.140 
15:35	73.5	73.5	73.5	20	30.0	2	4	68	0.00	30.139 
15:40	73.3	73.3	73.3	22	32.2	2	5	112	0.00	30.141 
15:45	73.5	73.5	73.5	20	30.0	0	2	112	0.00	30.135 
15:50	73.5	73.5	73.5	21	31.2	1	4	248	0.00	30.132 
15:55	73.7	73.7	73.7	20	30.1	0	2	158	0.00	30.131 
16:00	73.9	73.9	73.9	20	30.3	1	3	248	0.00	30.129 
16:05	73.7	73.7	73.7	24	34.7	1	5	112	0.00	30.130 
16:10	73.5	73.5	73.5	23	33.4	2	5	248	0.00	30.131 
16:15	73.5	73.5	73.5	21	31.2	1	4	248	0.00	30.129 
16:20	73.7	73.7	73.7	22	32.5	1	3	112	0.00	30.129 
16:25	73.5	73.5	73.5	20	30.0	2	5	90	0.00	30.128 
16:30	73.3	73.3	73.3	21	31.0	1	5	225	0.00	30.128 
16:35	73.2	73.2	73.2	25	35.3	0	1	225	0.00	30.128 
16:40	72.8	72.8	72.8	19	28.1	1	3	90	0.00	30.124 
16:45	73.0	73.0	73.0	23	33.0	1	4	248	0.00	30.124 
16:50	73.0	73.0	73.0	25	35.1	1	5	248	0.00	30.122 
16:55	73.0	73.0	73.0	22	31.9	1	3	112	0.00	30.119 
17:00	73.0	73.0	73.0	25	35.1	1	3	112	0.00	30.116 
17:05	72.8	72.8	72.8	22	31.7	1	4	112	0.00	30.118 
17:10	72.5	72.5	72.5	20	29.1	2	4	112	0.00	30.117 
17:15	72.5	72.5	72.5	22	31.5	0	2	112	0.00	30.116 
17:20	72.7	72.7	72.7	24	33.8	1	3	270	0.00	30.115 
17:25	72.7	72.7	72.7	24	33.8	1	4	68	0.00	30.114 
17:30	72.5	72.5	72.5	22	31.5	0	2	68	0.00	30.113 
17:35	72.3	72.3	72.3	23	32.4	0	2	68	0.00	30.112 
17:40	72.3	72.3	72.3	23	32.4	1	5	90	0.00	30.110 
17:45	72.1	72.1	72.1	26	35.3	0	1	90	0.00	30.108 
17:50	71.8	71.8	71.8	24	33.1	0	3	248	0.00	30.107 
17:55	71.5	71.5	71.5	24	32.8	1	3	68	0.00	30.110 
18:00	71.3	71.3	71.3	23	31.6	1	2	248	0.00	30.108 
18:05	71.1	71.1	71.1	25	33.5	0	2	248	0.00	30.102 
18:10	70.9	70.9	70.9	23	31.2	0	1	225	0.00	30.102 
18:15	70.9	70.9	70.9	24	32.3	0	1	225	0.00	30.101 
18:20	70.6	70.6	70.6	26	34.0	0	1	225	0.00	30.101 
18:25	70.3	70.3	70.3	25	32.8	0	0	---	0.00	30.100 
18:30	69.9	69.9	69.9	26	33.4	0	1	225	0.00	30.101 
18:35	69.6	69.6	69.6	27	34.1	0	1	225	0.00	30.100 
18:40	69.3	69.3	69.3	27	33.9	0	2	225	0.00	30.101 
18:45	68.9	68.9	68.9	27	33.5	0	1	225	0.00	30.101 
18:50	68.6	68.6	68.6	27	33.3	0	0	---	0.00	30.101 
18:55	68.4	68.4	68.4	27	33.1	0	1	225	0.00	30.099 
19:00	68.1	68.1	68.1	28	33.8	0	0	---	0.00	30.099 
19:05	67.8	67.8	67.8	28	33.5	0	0	---	0.00	30.088 
19:10	67.4	67.4	67.4	28	33.2	0	0	---	0.00	30.090 
19:15	66.9	66.9	66.9	29	33.6	0	1	225	0.00	30.090 
19:20	66.6	66.6	66.6	30	34.2	0	1	225	0.00	30.090 
19:25	66.1	66.1	66.1	30	33.8	0	0	---	0.00	30.090 
19:30	65.6	65.6	65.6	32	34.9	0	0	---	0.00	30.089 
19:35	65.0	65.0	65.0	35	36.7	0	0	---	0.00	30.090 
19:40	64.2	64.2	64.2	35	36.0	0	1	225	0.00	30.090 
19:45	63.5	63.5	63.5	36	36.1	0	0	---	0.00	30.090 
19:50	62.7	62.7	62.7	38	36.7	0	0	---	0.00	30.091 
19:55	62.0	62.0	62.0	37	35.4	0	0	---	0.00	30.092 
20:00	61.3	61.3	61.3	38	35.5	0	0	---	0.00	30.092 
20:05	60.7	60.7	60.7	38	34.9	0	0	---	0.00	30.088 
20:10	59.9	59.9	59.9	39	34.9	0	0	---	0.00	30.091 
20:15	59.3	59.3	59.3	40	35.0	0	0	---	0.00	30.091 
20:20	58.9	58.9	58.9	41	35.2	0	0	---	0.00	30.091 
20:25	58.3	58.3	58.3	43	35.9	0	0	---	0.00	30.092 
20:30	57.8	57.8	57.8	44	36.0	0	0	---	0.00	30.093 
20:35	57.2	57.2	57.2	45	36.1	0	0	---	0.00	30.093 
20:40	56.9	56.9	56.9	46	36.3	0	0	---	0.00	30.092 
20:45	56.5	56.5	56.5	46	36.0	0	0	---	0.00	30.092 
20:50	56.0	56.0	56.0	47	36.1	0	0	---	0.00	30.093 
20:55	55.6	55.6	55.6	48	36.2	0	0	---	0.00	30.093 
21:00	55.3	55.3	55.3	49	36.5	0	0	---	0.00	30.093 
21:05	54.8	54.8	54.8	50	36.5	0	0	---	0.00	30.089 
21:10	54.4	54.4	54.4	50	36.2	0	0	---	0.00	30.090 
21:15	54.1	54.1	54.1	51	36.4	0	0	---	0.00	30.090 
21:20	53.8	53.8	53.8	52	36.6	0	0	---	0.00	30.091 
21:25	53.5	53.5	53.5	53	36.8	0	0	---	0.00	30.091 
21:30	53.2	53.2	53.2	54	37.0	0	0	---	0.00	30.092 
21:35	53.1	53.1	53.1	55	37.4	0	1	225	0.00	30.093 
21:40	53.2	53.2	53.2	54	37.0	0	0	---	0.00	30.092 
21:45	53.2	53.2	53.2	55	37.5	0	0	---	0.00	30.091 
21:50	52.9	52.9	52.9	55	37.2	0	0	---	0.00	30.091 
21:55	52.8	52.8	52.8	56	37.5	0	0	---	0.00	30.091 
22:00	52.5	52.5	52.5	56	37.3	0	0	---	0.00	30.091 
22:05	52.3	52.3	52.3	56	37.1	0	0	---	0.00	30.091 
22:10	52.0	52.0	52.0	57	37.2	0	0	---	0.00	30.092 
22:15	51.7	51.7	51.7	58	37.4	0	0	---	0.00	30.091 
22:20	51.6	51.6	51.6	58	37.3	0	0	---	0.00	30.090 
22:25	51.1	51.1	51.1	59	37.3	0	0	---	0.00	30.090 
22:30	50.8	50.8	50.8	61	37.8	0	0	---	0.00	30.088 
22:35	50.5	50.5	50.5	61	37.6	0	0	---	0.00	30.088 
22:40	50.4	50.4	50.4	61	37.5	0	0	---	0.00	30.089 
22:45	50.1	50.1	50.1	62	37.6	0	0	---	0.00	30.086 
22:50	49.8	49.8	49.8	63	37.7	0	0	---	0.00	30.089 
22:55	49.5	49.5	49.5	62	37.0	0	0	---	0.00	30.090 
23:00	49.4	49.4	49.4	64	37.7	0	0	---	0.00	30.089 
23:05	49.2	49.2	49.2	65	37.9	0	0	---	0.00	30.085 
23:10	49.1	49.1	49.1	65	37.8	0	0	---	0.00	30.085 
23:15	48.9	48.9	48.9	64	37.3	0	0	---	0.00	30.084 
23:20	48.9	48.9	48.9	64	37.3	0	0	---	0.00	30.082 
23:25	48.8	48.8	48.8	65	37.6	0	0	---	0.00	30.081 
23:30	48.6	48.6	48.6	65	37.4	0	0	---	0.00	30.081 
23:35	48.5	48.5	48.5	64	36.9	0	0	---	0.00	30.082 
23:40	48.5	48.5	48.5	65	37.3	0	0	---	0.00	30.081 
23:45	48.3	48.3	48.3	65	37.1	0	0	---	0.00	30.082 
23:50	48.2	48.2	48.2	66	37.4	0	0	---	0.00	30.081 
23:55	47.9	47.9	47.9	66	37.1	0	0	---	0.00	30.080 

CoCoRaHS
IN-AL-39
A2 Web Hosting
Creative Commons License
GoDaddy
Look for:

loaded 2017-12-11 06:49:53 • last modified 2010-11-18 10:43:29
Privacy PolicyDisclaimer
• wx.awcolley.com is powered by PmWiki v.2002016 •
• all content (unless otherwise noted) © 2017 A W Colley